Time;durP1;ratioP1;P1;durP2;ratioP2;P2;SDS_P1;SDS_P2;PMS_P1;PMS_P2;Temp;Humidity;BMP_temperature;BMP_pressure;BME280_temperature;BME280_humidity;BME280_pressure;Samples;Min_cycle;Max_cycle;Signal;HPM_P1;HPM_P2
2022/11/22 00:00:06;;;;;;;13.10;5.07;;;9.10;99.90;;;;;;5093906;28;20032;-72
2022/11/22 00:02:36;;;;;;;10.68;5.10;;;9.10;99.90;;;;;;5108187;28;20054;-72
2022/11/22 00:05:02;;;;;;;9.93;5.00;;;9.00;99.90;;;;;;5110935;28;20161;-72
2022/11/22 00:07:28;;;;;;;14.18;5.38;;;9.10;99.90;;;;;;5108258;28;20107;-71
2022/11/22 00:09:53;;;;;;;11.00;5.70;;;9.10;99.90;;;;;;5109774;28;21135;-72
2022/11/22 00:12:19;;;;;;;12.07;4.70;;;9.20;99.90;;;;;;5110007;28;20054;-72
2022/11/22 00:14:45;;;;;;;10.45;5.15;;;9.10;99.90;;;;;;5106906;28;20024;-72
2022/11/22 00:17:10;;;;;;;10.23;4.68;;;9.10;99.90;;;;;;5110411;28;20476;-72
2022/11/22 00:19:38;;;;;;;11.82;4.93;;;9.10;99.90;;;;;;5110238;28;20112;-72
2022/11/22 00:22:04;;;;;;;11.15;4.50;;;9.10;99.90;;;;;;5090467;28;20036;-72
2022/11/22 00:24:31;;;;;;;8.80;4.43;;;9.00;99.90;;;;;;5107131;28;20521;-71
2022/11/22 00:26:57;;;;;;;17.75;5.25;;;9.00;99.90;;;;;;5112482;28;20023;-72
2022/11/22 00:29:22;;;;;;;12.52;4.55;;;9.00;99.90;;;;;;5107209;28;20043;-71
2022/11/22 00:31:48;;;;;;;21.08;4.70;;;9.00;99.90;;;;;;5108263;28;20031;-71
2022/11/22 00:34:14;;;;;;;10.65;4.53;;;8.90;99.90;;;;;;5106850;28;20031;-71
2022/11/22 00:36:40;;;;;;;10.70;4.00;;;8.90;99.90;;;;;;5105308;28;20019;-72
2022/11/22 00:39:05;;;;;;;11.07;3.47;;;8.80;99.90;;;;;;5107022;28;20349;-71
2022/11/22 00:41:31;;;;;;;9.73;4.30;;;8.80;99.90;;;;;;5106416;28;20036;-72
2022/11/22 00:43:57;;;;;;;12.18;3.70;;;8.90;99.90;;;;;;5107125;28;20023;-71
2022/11/22 00:46:22;;;;;;;15.85;4.88;;;8.90;99.90;;;;;;5106349;28;20491;-72
2022/11/22 00:48:48;;;;;;;20.35;4.07;;;8.80;99.90;;;;;;5104229;28;20489;-71
2022/11/22 00:51:14;;;;;;;13.98;3.67;;;8.80;99.90;;;;;;5110116;28;20399;-71
2022/11/22 00:53:39;;;;;;;11.15;3.60;;;8.90;99.90;;;;;;5105301;28;20018;-72
2022/11/22 00:56:05;;;;;;;19.27;4.00;;;8.80;99.90;;;;;;5110404;28;20433;-71
2022/11/22 00:58:30;;;;;;;17.30;3.92;;;8.80;99.90;;;;;;5108258;28;20054;-72
2022/11/22 01:00:56;;;;;;;15.10;3.88;;;8.80;99.90;;;;;;5109887;28;20031;-71
2022/11/22 01:03:22;;;;;;;13.93;3.88;;;8.70;99.90;;;;;;5112264;28;20461;-71
2022/11/22 01:05:47;;;;;;;11.38;3.50;;;8.80;99.90;;;;;;5087481;28;20063;-70
2022/11/22 01:08:13;;;;;;;20.08;4.70;;;8.70;99.90;;;;;;5109820;28;20037;-71
2022/11/22 01:10:38;;;;;;;13.57;3.65;;;8.70;99.90;;;;;;5109532;28;20040;-71
2022/11/22 01:13:05;;;;;;;22.13;3.67;;;8.60;99.90;;;;;;5109769;28;20390;-70
2022/11/22 01:15:31;;;;;;;12.10;3.80;;;8.60;99.90;;;;;;5103439;28;20039;-71
2022/11/22 01:17:57;;;;;;;15.35;4.25;;;8.60;99.90;;;;;;5109391;28;20024;-71
2022/11/22 01:20:23;;;;;;;17.00;3.97;;;8.60;99.90;;;;;;5111338;28;20088;-71
2022/11/22 01:22:48;;;;;;;22.90;3.25;;;8.60;99.90;;;;;;5105175;28;20020;-73
2022/11/22 01:25:14;;;;;;;18.90;4.30;;;8.60;99.90;;;;;;5107736;28;20030;-71
2022/11/22 01:27:40;;;;;;;20.83;4.55;;;8.70;99.90;;;;;;5111713;28;20040;-70
2022/11/22 01:30:06;;;;;;;20.75;4.43;;;8.70;99.90;;;;;;5113008;28;20030;-70
2022/11/22 01:32:32;;;;;;;23.60;4.30;;;8.60;99.90;;;;;;5112700;28;20050;-71
2022/11/22 01:34:57;;;;;;;19.65;4.13;;;8.60;99.90;;;;;;5108109;28;20059;-71
2022/11/22 01:37:23;;;;;;;18.30;4.05;;;8.60;99.90;;;;;;5105572;28;20042;-70
2022/11/22 01:39:48;;;;;;;15.05;4.18;;;8.60;99.90;;;;;;5092139;28;20034;-70
2022/11/22 01:42:14;;;;;;;20.98;4.90;;;8.50;99.90;;;;;;5108363;28;20399;-71
2022/11/22 01:44:42;;;;;;;21.52;4.07;;;8.50;99.90;;;;;;5105248;28;20035;-70
2022/11/22 01:47:12;;;;;;;21.30;3.80;;;8.40;99.90;;;;;;5109400;28;20043;-71
2022/11/22 01:49:46;;;;;;;25.40;4.35;;;8.50;99.90;;;;;;5111234;28;20085;-71
2022/11/22 01:52:16;;;;;;;27.80;4.82;;;8.50;99.90;;;;;;5108658;28;20483;-71
2022/11/22 01:54:46;;;;;;;25.25;4.60;;;8.50;99.90;;;;;;5108223;28;20115;-71
2022/11/22 01:57:16;;;;;;;23.50;4.53;;;8.40;99.90;;;;;;5108503;28;20036;-71
2022/11/22 01:59:49;;;;;;;25.85;3.53;;;8.30;99.90;;;;;;5109411;28;20027;-71
2022/11/22 02:02:15;;;;;;;20.30;4.13;;;8.20;99.90;;;;;;5108718;28;20040;-71
2022/11/22 02:04:42;;;;;;;16.45;3.78;;;8.20;99.90;;;;;;5105104;28;20070;-71
2022/11/22 02:07:16;;;;;;;27.88;4.30;;;8.20;99.90;;;;;;5113933;28;20035;-71
2022/11/22 02:09:43;;;;;;;21.58;4.97;;;8.20;99.90;;;;;;5109903;28;20020;-72
2022/11/22 02:12:11;;;;;;;20.02;3.75;;;8.20;99.90;;;;;;5104691;28;20472;-71
2022/11/22 02:14:38;;;;;;;29.73;4.55;;;8.20;99.90;;;;;;5105009;28;20031;-71
2022/11/22 02:17:04;;;;;;;22.83;3.85;;;8.20;99.90;;;;;;5112404;28;20432;-71
2022/11/22 02:19:45;;;;;;;25.52;4.32;;;8.20;99.90;;;;;;5108811;28;20058;-71
2022/11/22 02:22:35;;;;;;;19.02;4.10;;;8.20;99.90;;;;;;5103945;28;20040;-71
2022/11/22 02:25:25;;;;;;;30.52;6.03;;;8.20;99.90;;;;;;5108670;28;20012;-71
2022/11/22 02:27:50;;;;;;;26.08;4.05;;;8.20;99.90;;;;;;5105480;28;20098;-71
2022/11/22 02:30:17;;;;;;;23.77;3.97;;;8.10;99.90;;;;;;5102360;28;20150;-71
2022/11/22 02:32:43;;;;;;;23.13;4.80;;;8.20;99.90;;;;;;5102871;28;20024;-71
2022/11/22 02:35:28;;;;;;;16.02;3.35;;;8.10;99.90;;;;;;5109614;28;20039;-70
2022/11/22 02:38:02;;;;;;;22.38;3.97;;;8.10;99.90;;;;;;5108700;28;20590;-71
2022/11/22 02:40:33;;;;;;;18.80;4.10;;;8.10;99.90;;;;;;5086315;28;20383;-71
2022/11/22 02:43:02;;;;;;;23.63;3.65;;;8.10;99.90;;;;;;5108516;28;20372;-70
2022/11/22 02:45:27;;;;;;;26.65;4.05;;;8.10;99.90;;;;;;5105869;28;20032;-71
2022/11/22 02:48:02;;;;;;;22.08;3.97;;;8.20;99.90;;;;;;5109752;28;20535;-71
2022/11/22 02:50:28;;;;;;;14.05;3.47;;;8.10;99.90;;;;;;5108299;28;20036;-70
2022/11/22 02:52:54;;;;;;;24.33;4.20;;;8.10;99.90;;;;;;5109440;28;20023;-71
2022/11/22 02:55:19;;;;;;;26.95;4.40;;;8.10;99.90;;;;;;5104247;28;20031;-71
2022/11/22 02:57:45;;;;;;;22.95;3.72;;;8.10;99.90;;;;;;5111018;28;20024;-71
2022/11/22 03:00:11;;;;;;;15.68;3.70;;;8.00;99.90;;;;;;5108133;28;20069;-71
2022/11/22 03:02:37;;;;;;;16.40;2.97;;;8.00;99.90;;;;;;5104318;28;20530;-71
2022/11/22 03:05:02;;;;;;;18.75;3.25;;;8.00;99.90;;;;;;5088896;28;20015;-70
2022/11/22 03:07:28;;;;;;;20.77;3.97;;;7.90;99.90;;;;;;5111305;28;20489;-71
2022/11/22 03:09:53;;;;;;;21.00;3.47;;;8.00;99.90;;;;;;5111035;28;20032;-71
2022/11/22 03:12:19;;;;;;;21.45;3.30;;;8.00;99.90;;;;;;5101609;28;20024;-71
2022/11/22 03:14:45;;;;;;;19.17;3.20;;;7.90;99.90;;;;;;5090612;28;20357;-71
2022/11/22 03:17:10;;;;;;;20.15;2.88;;;7.90;99.90;;;;;;5101150;28;20032;-71
2022/11/22 03:19:36;;;;;;;21.20;3.50;;;8.00;99.90;;;;;;5105784;28;20082;-70
2022/11/22 03:22:01;;;;;;;22.98;3.28;;;7.90;99.90;;;;;;5103689;28;20043;-70
2022/11/22 03:24:27;;;;;;;18.55;2.95;;;7.80;99.90;;;;;;5105566;28;20038;-70
2022/11/22 03:26:52;;;;;;;18.35;3.47;;;7.80;99.90;;;;;;5102477;28;20028;-71
2022/11/22 03:29:18;;;;;;;24.60;3.88;;;7.90;99.90;;;;;;5105480;28;20123;-71
2022/11/22 03:31:44;;;;;;;27.17;4.35;;;7.80;99.90;;;;;;5109429;28;20019;-71
2022/11/22 03:34:11;;;;;;;15.77;2.60;;;7.80;99.90;;;;;;5103346;28;20043;-71
2022/11/22 03:36:36;;;;;;;21.58;2.95;;;7.80;99.90;;;;;;5111019;28;20016;-71
2022/11/22 03:39:02;;;;;;;14.52;3.15;;;7.80;99.90;;;;;;5101023;28;20085;-71
2022/11/22 03:41:28;;;;;;;27.17;3.30;;;7.80;99.90;;;;;;5104791;28;20127;-71
2022/11/22 03:43:54;;;;;;;20.23;3.38;;;7.70;99.90;;;;;;5104695;28;20115;-71
2022/11/22 03:46:19;;;;;;;27.63;3.75;;;7.70;99.90;;;;;;5108178;28;20072;-71
2022/11/22 03:48:45;;;;;;;21.67;3.53;;;7.60;99.90;;;;;;5105326;28;20016;-71
2022/11/22 03:51:12;;;;;;;16.25;3.33;;;7.70;99.90;;;;;;5109306;28;20496;-70
2022/11/22 03:53:37;;;;;;;21.02;3.22;;;7.60;99.90;;;;;;5099508;28;20479;-70
2022/11/22 03:56:04;;;;;;;17.58;3.25;;;7.60;99.90;;;;;;5108110;28;20020;-71
2022/11/22 03:58:30;;;;;;;18.48;2.92;;;7.60;99.90;;;;;;5103391;28;20035;-70
2022/11/22 04:00:56;;;;;;;19.35;3.15;;;7.60;99.90;;;;;;5098995;28;20034;-71
2022/11/22 04:03:22;;;;;;;18.30;4.05;;;7.60;99.90;;;;;;5105057;28;20114;-70
2022/11/22 04:05:47;;;;;;;16.05;3.13;;;7.60;99.90;;;;;;5106035;28;20111;-71
2022/11/22 04:08:13;;;;;;;21.40;3.53;;;7.60;99.90;;;;;;5111493;28;20468;-70
2022/11/22 04:10:39;;;;;;;17.67;3.60;;;7.50;99.90;;;;;;5105123;28;20111;-71
2022/11/22 04:13:04;;;;;;;16.35;3.97;;;7.50;99.90;;;;;;5107645;28;20043;-71
2022/11/22 04:15:30;;;;;;;24.77;3.72;;;7.50;99.90;;;;;;5106560;28;20127;-71
2022/11/22 04:17:55;;;;;;;12.23;3.10;;;7.60;99.90;;;;;;5100475;28;20491;-71
2022/11/22 04:23:18;;;;;;;21.20;2.90;;;7.60;99.90;;;;;;5106193;28;20046;-70
2022/11/22 04:25:47;;;;;;;17.23;3.13;;;7.40;99.90;;;;;;5101586;28;20020;-70
2022/11/22 04:28:14;;;;;;;18.98;3.33;;;7.40;99.90;;;;;;5103886;28;20694;-70
2022/11/22 04:33:24;;;;;;;20.00;2.75;;;7.30;99.90;;;;;;5102964;28;20178;-70
2022/11/22 04:35:50;;;;;;;16.42;3.30;;;7.20;99.90;;;;;;5104624;28;20081;-70
2022/11/22 04:38:16;;;;;;;9.13;2.58;;;7.20;99.90;;;;;;5106989;28;20028;-70
2022/11/22 04:40:43;;;;;;;17.95;2.30;;;7.20;99.90;;;;;;5112235;28;20028;-70
2022/11/22 04:46:07;;;;;;;16.17;2.90;;;7.30;99.90;;;;;;5114154;28;20100;-70
2022/11/22 04:48:34;;;;;;;17.33;3.05;;;7.30;99.90;;;;;;5102159;28;20103;-71
2022/11/22 04:53:43;;;;;;;14.20;2.60;;;7.20;99.90;;;;;;5111904;28;20083;-70
2022/11/22 04:56:10;;;;;;;21.17;3.03;;;7.10;99.90;;;;;;5107370;28;20028;-70
2022/11/22 04:58:35;;;;;;;10.55;2.75;;;7.10;99.90;;;;;;5109917;28;20484;-70
2022/11/22 05:01:01;;;;;;;19.58;2.72;;;7.20;99.90;;;;;;5113469;28;20076;-70
2022/11/22 05:03:27;;;;;;;10.93;2.80;;;7.10;99.90;;;;;;5109807;28;20036;-70
2022/11/22 05:05:52;;;;;;;17.30;2.92;;;7.10;99.90;;;;;;5100536;28;20035;-70
2022/11/22 05:08:18;;;;;;;19.10;3.50;;;7.10;99.90;;;;;;5104108;28;20035;-70
2022/11/22 05:10:55;;;;;;;15.35;3.22;;;7.00;99.90;;;;;;5105493;28;20432;-70
2022/11/22 05:13:24;;;;;;;27.98;3.72;;;7.00;99.90;;;;;;5109145;28;20024;-70
2022/11/22 05:15:52;;;;;;;16.35;3.42;;;7.10;99.90;;;;;;5105143;28;20132;-70
2022/11/22 05:18:18;;;;;;;14.90;3.17;;;7.10;99.90;;;;;;5108685;28;20036;-70
2022/11/22 05:20:44;;;;;;;16.90;2.90;;;7.00;99.90;;;;;;5105479;28;20484;-70
2022/11/22 05:25:54;;;;;;;20.40;3.10;;;7.10;99.90;;;;;;5107300;28;20081;-71
2022/11/22 05:28:20;;;;;;;15.10;2.67;;;7.00;99.90;;;;;;5095395;28;20467;-70
2022/11/22 05:30:46;;;;;;;15.73;2.85;;;7.00;99.90;;;;;;5103824;28;20071;-70
2022/11/22 05:33:12;;;;;;;16.88;2.30;;;7.00;99.90;;;;;;5105356;28;20464;-70
2022/11/22 05:35:37;;;;;;;10.30;2.50;;;7.00;99.90;;;;;;5106825;28;20024;-70
2022/11/22 05:38:03;;;;;;;11.65;3.13;;;7.00;99.90;;;;;;5109280;28;20024;-70
2022/11/22 05:40:28;;;;;;;20.65;3.83;;;7.00;99.90;;;;;;5110572;28;20478;-70
2022/11/22 05:42:55;;;;;;;12.98;2.40;;;7.00;99.90;;;;;;5107374;28;20131;-70
2022/11/22 05:45:21;;;;;;;15.50;2.90;;;7.00;99.90;;;;;;5105674;28;20035;-70
2022/11/22 05:47:46;;;;;;;13.98;2.28;;;6.90;99.90;;;;;;5110538;28;20032;-70
2022/11/22 05:50:12;;;;;;;15.27;2.90;;;7.00;99.90;;;;;;5103560;28;20487;-70
2022/11/22 05:52:38;;;;;;;11.40;2.25;;;6.90;99.90;;;;;;5103471;28;20093;-70
2022/11/22 05:55:04;;;;;;;14.85;2.50;;;7.00;99.90;;;;;;5104615;28;20041;-70
2022/11/22 05:57:31;;;;;;;18.25;3.13;;;7.00;99.90;;;;;;5110740;28;20032;-70
2022/11/22 05:59:57;;;;;;;14.52;3.10;;;6.90;99.90;;;;;;5111737;28;20027;-70
2022/11/22 06:02:23;;;;;;;15.80;2.65;;;7.00;99.90;;;;;;5108972;28;20546;-70
2022/11/22 06:04:48;;;;;;;16.77;2.92;;;7.00;99.90;;;;;;5107439;28;20054;-70
2022/11/22 06:07:14;;;;;;;14.25;2.20;;;7.00;99.90;;;;;;5113159;28;20077;-70
2022/11/22 06:09:39;;;;;;;14.07;2.88;;;7.00;99.90;;;;;;5108612;28;20474;-70
2022/11/22 06:12:05;;;;;;;16.08;3.17;;;6.90;99.90;;;;;;5111910;28;20093;-70
2022/11/22 06:14:31;;;;;;;14.73;2.85;;;6.80;99.90;;;;;;5106925;28;20039;-70
2022/11/22 06:16:56;;;;;;;17.33;3.10;;;6.70;99.90;;;;;;5102802;28;20059;-70
2022/11/22 06:19:22;;;;;;;10.25;3.22;;;6.70;99.90;;;;;;5106416;28;20050;-70
2022/11/22 06:21:47;;;;;;;17.55;2.78;;;6.70;99.90;;;;;;5109989;28;20043;-70
2022/11/22 06:24:13;;;;;;;17.48;3.47;;;6.70;99.90;;;;;;5106748;28;20485;-70
2022/11/22 06:26:39;;;;;;;11.77;2.92;;;6.80;99.90;;;;;;5091760;28;20031;-70
2022/11/22 06:29:04;;;;;;;15.40;3.22;;;6.70;99.90;;;;;;5109514;28;20023;-70
2022/11/22 06:31:30;;;;;;;9.90;2.60;;;6.60;99.90;;;;;;5107559;28;20031;-70
2022/11/22 06:33:59;;;;;;;13.52;2.97;;;6.60;99.90;;;;;;5099975;28;20384;-71
2022/11/22 06:36:30;;;;;;;12.73;3.00;;;6.60;99.90;;;;;;5087839;28;20024;-71
2022/11/22 06:38:56;;;;;;;10.57;3.00;;;6.70;99.90;;;;;;5107985;28;20031;-70
2022/11/22 06:41:24;;;;;;;18.23;3.13;;;6.60;99.90;;;;;;5108759;28;20036;-70
2022/11/22 06:43:51;;;;;;;17.98;3.50;;;6.60;99.90;;;;;;5107769;28;20020;-71
2022/11/22 06:46:19;;;;;;;10.57;2.85;;;6.50;99.90;;;;;;5108501;28;20024;-70
2022/11/22 06:48:45;;;;;;;10.45;2.83;;;6.50;99.90;;;;;;5103089;28;20081;-70
2022/11/22 06:51:17;;;;;;;15.68;2.78;;;6.40;99.90;;;;;;5111292;28;20031;-70
2022/11/22 06:53:42;;;;;;;15.97;3.10;;;6.50;99.90;;;;;;5100729;28;20028;-70
2022/11/22 06:56:34;;;;;;;17.85;2.55;;;6.40;99.90;;;;;;5110551;28;20042;-70
2022/11/22 06:59:02;;;;;;;18.75;3.42;;;6.40;99.90;;;;;;5109196;28;20016;-70
2022/11/22 07:01:29;;;;;;;12.25;2.92;;;6.40;99.90;;;;;;5108557;28;20111;-72
2022/11/22 07:03:59;;;;;;;9.35;2.95;;;6.50;99.90;;;;;;5103727;28;20034;-70
2022/11/22 07:06:27;;;;;;;22.70;2.83;;;6.50;99.90;;;;;;5110896;28;20034;-70
2022/11/22 07:08:52;;;;;;;14.88;2.80;;;6.50;99.90;;;;;;5106061;27;20464;-70
2022/11/22 07:11:23;;;;;;;9.43;2.53;;;6.40;99.90;;;;;;5089309;28;20067;-71
2022/11/22 07:13:49;;;;;;;14.40;2.88;;;6.50;99.90;;;;;;5109852;28;20486;-70
2022/11/22 07:16:19;;;;;;;14.90;2.72;;;6.50;99.90;;;;;;5104677;28;20035;-70
2022/11/22 07:18:45;;;;;;;14.15;2.70;;;6.50;99.90;;;;;;5111207;28;20036;-70
2022/11/22 07:21:19;;;;;;;13.68;2.67;;;6.60;99.90;;;;;;5102675;28;20048;-71
2022/11/22 07:23:47;;;;;;;18.52;3.20;;;6.60;99.90;;;;;;5110912;28;20042;-71
2022/11/22 07:26:14;;;;;;;13.77;2.42;;;6.60;99.90;;;;;;5103676;28;20023;-71
2022/11/22 07:28:40;;;;;;;13.88;2.22;;;6.70;99.90;;;;;;5110668;28;20024;-71
2022/11/22 07:31:08;;;;;;;13.23;2.42;;;6.70;99.90;;;;;;5091327;28;20023;-70
2022/11/22 07:33:34;;;;;;;9.00;2.22;;;6.80;99.90;;;;;;5103985;28;20111;-71
2022/11/22 07:36:10;;;;;;;9.50;2.30;;;6.70;99.90;;;;;;5106846;28;20038;-71
2022/11/22 07:38:36;;;;;;;13.20;2.53;;;6.80;99.90;;;;;;5089976;28;20020;-70
2022/11/22 07:41:02;;;;;;;14.88;3.08;;;6.80;99.90;;;;;;5104784;28;20481;-71
2022/11/22 07:43:28;;;;;;;14.35;2.58;;;6.90;99.90;;;;;;5105486;27;20030;-70
2022/11/22 07:45:58;;;;;;;13.15;2.40;;;7.00;99.90;;;;;;5103481;28;20015;-70
2022/11/22 07:48:23;;;;;;;10.93;2.65;;;7.00;99.90;;;;;;5107504;27;20556;-71
2022/11/22 07:50:49;;;;;;;20.77;2.85;;;7.00;99.90;;;;;;5103285;28;20115;-70
2022/11/22 07:53:14;;;;;;;8.27;3.28;;;7.10;99.90;;;;;;5104900;28;20388;-71
2022/11/22 07:55:40;;;;;;;13.13;2.50;;;7.10;99.90;;;;;;5105667;28;20035;-69
2022/11/22 07:58:06;;;;;;;16.08;2.58;;;7.10;99.90;;;;;;5104926;28;20024;-70
2022/11/22 08:00:31;;;;;;;21.88;2.90;;;7.10;99.90;;;;;;5110812;28;20406;-71
2022/11/22 08:02:58;;;;;;;13.52;2.60;;;7.10;99.90;;;;;;5105015;28;20031;-71
2022/11/22 08:05:24;;;;;;;14.55;3.00;;;7.20;99.90;;;;;;5110724;28;20019;-70
2022/11/22 08:07:50;;;;;;;22.95;3.25;;;7.30;99.90;;;;;;5107260;28;20050;-71
2022/11/22 08:10:16;;;;;;;12.88;2.33;;;7.20;99.90;;;;;;5089584;28;20020;-74
2022/11/22 08:12:42;;;;;;;9.02;2.50;;;7.30;99.90;;;;;;5099962;28;20098;-69
2022/11/22 08:15:09;;;;;;;16.27;2.90;;;7.30;99.90;;;;;;5106927;28;20111;-71
2022/11/22 08:17:34;;;;;;;12.93;2.58;;;7.30;99.90;;;;;;5103526;28;20051;-70
2022/11/22 08:20:00;;;;;;;8.30;2.20;;;7.30;99.90;;;;;;5103531;28;20036;-70
2022/11/22 08:22:26;;;;;;;12.07;2.42;;;7.30;99.90;;;;;;5105232;28;20039;-70
2022/11/22 08:24:51;;;;;;;10.52;2.30;;;7.20;99.90;;;;;;5109141;28;20468;-70
2022/11/22 08:27:17;;;;;;;146.82;8.77;;;7.20;99.90;;;;;;5108519;28;20035;-70
2022/11/22 08:29:42;;;;;;;12.90;2.20;;;7.30;99.90;;;;;;5102453;28;20421;-71
2022/11/22 08:32:08;;;;;;;11.02;2.10;;;7.30;99.90;;;;;;5099953;28;20028;-72
2022/11/22 08:34:34;;;;;;;13.82;2.30;;;7.30;99.90;;;;;;5105289;28;20476;-70
2022/11/22 08:36:59;;;;;;;19.98;2.38;;;7.40;99.90;;;;;;5101355;28;20077;-71
2022/11/22 08:39:25;;;;;;;13.52;2.30;;;7.50;99.90;;;;;;5087485;28;20020;-70
2022/11/22 08:41:50;;;;;;;6.53;2.10;;;7.50;99.90;;;;;;5099891;28;20032;-71
2022/11/22 08:44:16;;;;;;;8.65;2.10;;;7.50;99.90;;;;;;5101105;28;20065;-71
2022/11/22 08:46:41;;;;;;;14.75;2.35;;;7.60;99.90;;;;;;5100494;28;20476;-71
2022/11/22 08:49:09;;;;;;;13.52;2.42;;;7.60;99.90;;;;;;5102784;28;20070;-71
2022/11/22 08:51:35;;;;;;;6.53;2.00;;;7.60;99.90;;;;;;5102856;28;20399;-71
2022/11/22 08:54:01;;;;;;;45.25;3.50;;;7.60;99.90;;;;;;5101595;28;20016;-71
2022/11/22 08:56:27;;;;;;;8.15;2.25;;;7.70;99.90;;;;;;5105544;28;20440;-72
2022/11/22 08:58:53;;;;;;;21.33;2.63;;;7.60;99.90;;;;;;5101976;28;20012;-72
2022/11/22 09:01:20;;;;;;;9.48;2.20;;;7.60;99.90;;;;;;5086837;28;20042;-71
2022/11/22 09:03:46;;;;;;;14.85;2.40;;;7.70;99.90;;;;;;5106154;28;20019;-71
2022/11/22 09:06:15;;;;;;;8.00;2.40;;;7.80;99.90;;;;;;5098488;28;20533;-70
2022/11/22 09:08:41;;;;;;;13.23;2.67;;;7.70;99.90;;;;;;5092241;28;20022;-71
2022/11/22 09:11:12;;;;;;;8.48;2.13;;;7.80;99.90;;;;;;5107885;28;20400;-71
2022/11/22 09:13:38;;;;;;;9.88;2.10;;;7.80;99.90;;;;;;5100314;28;20020;-70
2022/11/22 09:16:08;;;;;;;8.23;1.77;;;7.80;99.90;;;;;;5100441;28;20494;-70
2022/11/22 09:18:34;;;;;;;9.30;2.20;;;7.90;99.90;;;;;;5105830;28;20027;-71
2022/11/22 09:21:02;;;;;;;9.50;2.33;;;7.90;99.90;;;;;;5097057;28;20036;-71
2022/11/22 09:23:28;;;;;;;11.93;2.15;;;7.90;99.90;;;;;;5102313;28;20032;-71
2022/11/22 09:26:05;;;;;;;19.00;2.30;;;7.90;99.90;;;;;;5111144;28;20024;-71
2022/11/22 09:28:31;;;;;;;8.48;1.90;;;7.90;99.90;;;;;;5090617;28;20444;-71
2022/11/22 09:31:11;;;;;;;6.70;2.10;;;8.00;99.90;;;;;;5093022;28;20024;-72
2022/11/22 09:33:38;;;;;;;7.75;2.08;;;8.00;99.90;;;;;;5111453;28;20155;-71
2022/11/22 09:36:07;;;;;;;7.75;1.77;;;8.00;99.90;;;;;;5110230;28;20019;-71
2022/11/22 09:38:33;;;;;;;11.30;2.30;;;7.90;99.90;;;;;;5113297;28;20533;-71
2022/11/22 09:41:03;;;;;;;4.57;1.50;;;7.90;99.90;;;;;;5110603;28;20024;-71
2022/11/22 09:43:44;;;;;;;9.77;1.95;;;7.80;99.90;;;;;;5111567;28;20023;-71
2022/11/22 09:46:28;;;;;;;6.18;1.60;;;7.90;99.90;;;;;;5110900;28;20034;-71
2022/11/22 09:49:01;;;;;;;3.95;1.60;;;8.00;99.90;;;;;;5110525;28;20483;-71
2022/11/22 09:51:33;;;;;;;6.30;1.75;;;7.90;99.90;;;;;;5095211;28;20384;-71
2022/11/22 09:54:09;;;;;;;4.90;1.60;;;8.00;99.90;;;;;;5092466;28;20023;-70
2022/11/22 09:56:36;;;;;;;6.82;1.58;;;7.90;99.90;;;;;;5094412;28;20023;-71
2022/11/22 09:59:19;;;;;;;6.05;1.70;;;8.00;99.90;;;;;;5108340;28;20027;-72
2022/11/22 10:01:52;;;;;;;;;;;8.00;99.90;;;;;;5108677;28;20051;-72
2022/11/22 10:04:38;;;;;;;7.70;1.30;;;8.00;99.90;;;;;;5105407;28;19908;-70
2022/11/22 10:07:21;;;;;;;9.73;1.77;;;8.10;99.90;;;;;;5102127;28;20024;-71
2022/11/22 10:09:58;;;;;;;7.95;1.90;;;8.20;99.90;;;;;;5107691;28;20034;-72
2022/11/22 10:12:40;;;;;;;7.70;1.95;;;8.10;99.90;;;;;;5105578;28;20030;-70
2022/11/22 10:15:30;;;;;;;19.75;4.53;;;8.20;99.90;;;;;;5109327;28;20022;-72
2022/11/22 10:18:10;;;;;;;7.43;1.35;;;8.30;99.90;;;;;;5101613;28;20531;-71
2022/11/22 10:20:39;;;;;;;3.50;1.15;;;8.30;99.90;;;;;;5110356;28;20092;-71
2022/11/22 10:23:18;;;;;;;2.50;1.33;;;8.40;99.90;;;;;;5112001;28;20023;-70
2022/11/22 10:25:57;;;;;;;4.65;1.55;;;8.40;99.90;;;;;;5110063;28;20020;-71
2022/11/22 10:28:39;;;;;;;2.80;1.40;;;8.50;99.90;;;;;;5103559;28;20492;-70
2022/11/22 10:31:16;;;;;;;5.45;1.08;;;8.40;99.90;;;;;;5110986;28;20317;-72
2022/11/22 10:34:08;;;;;;;2.72;1.30;;;8.40;99.90;;;;;;5112074;28;20534;-72
2022/11/22 10:36:38;;;;;;;2.25;0.88;;;8.50;99.90;;;;;;5058741;28;20035;-72
2022/11/22 10:39:44;;;;;;;4.05;1.10;;;8.40;99.90;;;;;;5101823;28;20101;-73
2022/11/22 10:42:26;;;;;;;1.52;0.85;;;8.50;99.90;;;;;;5112270;28;20088;-72
2022/11/22 10:45:21;;;;;;;2.70;0.77;;;8.50;99.90;;;;;;5107066;28;20357;-71
2022/11/22 10:48:24;;;;;;;3.28;1.08;;;8.60;99.90;;;;;;5107506;28;20295;-71
2022/11/22 10:50:58;;;;;;;3.50;1.00;;;8.60;99.90;;;;;;5101789;28;20053;-71
2022/11/22 10:53:44;;;;;;;5.05;0.80;;;8.70;99.90;;;;;;5105661;28;20035;-71
2022/11/22 10:56:29;;;;;;;1.77;0.88;;;8.80;99.90;;;;;;5094755;28;20379;-72
2022/11/22 10:59:16;;;;;;;2.25;0.73;;;8.80;99.90;;;;;;5106879;28;20015;-72
2022/11/22 11:01:44;;;;;;;3.75;0.63;;;8.80;99.90;;;;;;5106030;28;20040;-70
2022/11/22 11:04:12;;;;;;;2.65;0.90;;;8.80;99.90;;;;;;5111501;28;20036;-71
2022/11/22 11:07:04;;;;;;;12.23;1.90;;;8.80;99.90;;;;;;5094035;28;20399;-71
2022/11/22 11:09:41;;;;;;;2.42;0.90;;;8.80;99.90;;;;;;5109340;28;20024;-71
2022/11/22 11:12:18;;;;;;;3.17;0.95;;;8.80;99.90;;;;;;5105066;28;20032;-72
2022/11/22 11:15:11;;;;;;;3.50;0.68;;;8.80;99.90;;;;;;5108883;28;20106;-72
2022/11/22 11:17:37;;;;;;;1.70;0.63;;;8.70;99.90;;;;;;5105749;28;20027;-71
2022/11/22 11:20:18;;;;;;;0.95;0.60;;;8.80;99.90;;;;;;5090502;28;20553;-71
2022/11/22 11:22:44;;;;;;;0.88;0.60;;;8.70;99.90;;;;;;5094176;28;20059;-73
2022/11/22 11:25:29;;;;;;;2.75;0.60;;;8.80;99.90;;;;;;5107801;28;20058;-72
2022/11/22 11:28:02;;;;;;;3.75;0.60;;;8.80;99.90;;;;;;5104463;28;20028;-73
2022/11/22 11:30:40;;;;;;;4.07;0.75;;;8.90;99.90;;;;;;5069433;28;20031;-72
2022/11/22 11:33:24;;;;;;;1.75;0.60;;;8.90;99.90;;;;;;5094364;28;20594;-71
2022/11/22 11:35:54;;;;;;;3.75;2.55;;;9.00;99.90;;;;;;5090187;28;20487;-71
2022/11/22 11:38:41;;;;;;;1.17;0.50;;;9.00;99.90;;;;;;5094888;28;20028;-71
2022/11/22 11:41:29;;;;;;;4.57;0.80;;;9.00;99.90;;;;;;5094512;28;20492;-72
2022/11/22 11:43:59;;;;;;;1.52;0.80;;;8.90;99.90;;;;;;5097710;28;20028;-74
2022/11/22 11:46:27;;;;;;;1.00;0.80;;;8.90;99.90;;;;;;5099263;28;20364;-72
2022/11/22 11:49:15;;;;;;;1.55;0.70;;;9.10;99.90;;;;;;5099217;28;20066;-73
2022/11/22 11:51:51;;;;;;;2.28;1.10;;;9.10;99.90;;;;;;5096593;28;20034;-72
2022/11/22 11:54:32;;;;;;;2.55;0.40;;;9.10;99.90;;;;;;5094422;28;20545;-72
2022/11/22 11:56:59;;;;;;;2.67;0.88;;;9.10;99.90;;;;;;5096485;28;20020;-72
2022/11/22 11:59:47;;;;;;;1.05;0.50;;;9.10;99.90;;;;;;5100177;28;20031;-72
2022/11/22 12:02:12;;;;;;;1.75;0.70;;;9.10;99.90;;;;;;5100367;28;20038;-72
2022/11/22 12:04:56;;;;;;;2.00;0.93;;;9.10;99.90;;;;;;5096683;28;20028;-72
2022/11/22 12:07:32;;;;;;;2.33;0.63;;;9.10;99.90;;;;;;5100778;28;20522;-70
2022/11/22 12:09:58;;;;;;;2.58;0.70;;;9.10;99.90;;;;;;5098117;28;20047;-69
2022/11/22 12:12:44;;;;;;;2.53;0.80;;;9.20;99.90;;;;;;5095493;28;20069;-70
2022/11/22 12:15:42;;;;;;;1.85;0.93;;;9.10;99.90;;;;;;5095569;28;20057;-72
2022/11/22 12:18:38;;;;;;;1.42;0.90;;;9.20;99.90;;;;;;5095776;28;20506;-70
2022/11/22 12:21:44;;;;;;;2.53;1.13;;;9.20;99.90;;;;;;5097456;28;20591;-77
2022/11/22 12:24:10;;;;;;;4.55;1.48;;;9.20;99.90;;;;;;5094334;28;20568;-69
2022/11/22 12:26:36;;;;;;;8.15;1.80;;;9.30;99.90;;;;;;5098395;28;20538;-70
2022/11/22 12:29:02;;;;;;;1.80;1.10;;;9.30;99.90;;;;;;5097895;28;20039;-75
2022/11/22 12:31:44;;;;;;;3.28;0.80;;;9.30;99.90;;;;;;5092541;28;20019;-72
2022/11/22 12:34:31;;;;;;;2.08;0.80;;;9.40;99.90;;;;;;5096637;28;20032;-70
2022/11/22 12:37:08;;;;;;;5.25;0.70;;;9.40;99.90;;;;;;5096959;28;20032;-70
2022/11/22 12:39:36;;;;;;;1.63;0.68;;;9.30;99.90;;;;;;5100881;28;20024;-70
2022/11/22 12:42:12;;;;;;;7.68;3.38;;;9.40;99.90;;;;;;5096848;28;20088;-78
2022/11/22 12:44:46;;;;;;;4.47;1.48;;;9.40;99.90;;;;;;5099584;28;20020;-71
2022/11/22 12:47:22;;;;;;;3.15;0.70;;;9.40;99.90;;;;;;5098579;28;20915;-74
2022/11/22 12:50:01;;;;;;;3.80;1.88;;;9.30;99.90;;;;;;5077897;28;20062;-73
2022/11/22 12:52:44;;;;;;;1.40;0.77;;;9.30;99.90;;;;;;5094967;28;20066;-70
2022/11/22 12:55:21;;;;;;;6.93;3.47;;;9.30;99.90;;;;;;5096484;28;20472;-75
2022/11/22 12:58:20;;;;;;;1.33;0.80;;;9.40;99.90;;;;;;5097271;28;20015;-74
2022/11/22 13:01:16;;;;;;;1.60;0.80;;;9.40;99.90;;;;;;5051084;28;20035;-71
2022/11/22 13:04:31;;;;;;;6.40;1.25;;;9.50;99.90;;;;;;5089988;28;20066;-70
2022/11/22 13:07:14;;;;;;;1.60;0.73;;;9.50;99.90;;;;;;5047650;28;20490;-72
2022/11/22 13:09:50;;;;;;;0.80;0.80;;;9.60;99.90;;;;;;5098970;28;20020;-72
2022/11/22 13:12:25;;;;;;;0.70;0.50;;;9.70;99.90;;;;;;5098546;28;20073;-74
2022/11/22 13:14:54;;;;;;;1.85;0.60;;;9.60;99.90;;;;;;5097590;28;20046;-71
2022/11/22 13:17:23;;;;;;;1.05;0.50;;;9.60;99.90;;;;;;5099348;28;20196;-74
2022/11/22 13:20:00;;;;;;;0.77;0.60;;;9.60;99.90;;;;;;5097823;28;20036;-71